Brigham, Utah
Current Conditions -  °F | °C
As of 12:53 AM on Wednesday 26 Nov 2014 (Local Time) from KOGD Reporting Station
Clear Clear  
Wind Chill: 42°   Ceiling: Unl
Heat Index: 46°   Visibility: 10mi
Dew Point: 33°   Wind: 7mph
Humidity: 61%   Direction: 240°WSW
Pressure: 30.32"   Gusts: NA
Location:  41.4833°N, 112.095°W
Report Text: KOGD 260753Z AUTO 24006KT 10SM CLR 08/01 A3032 RMK AO2 SLP258 T00780006 TSNO
Loading
Personal Weather Stations






























Interactive Weather Map New forecast layout! Learn more

10-Day Weather Forecast

Advertisements
Track Severe Weather on mobile